Time;durP1;ratioP1;P1;durP2;ratioP2;P2;SDS_P1;SDS_P2;PMS_P1;PMS_P2;Temp;Humidity;BMP_temperature;BMP_pressure;BME280_temperature;BME280_humidity;BME280_pressure;Samples;Min_cycle;Max_cycle;Signal;HPM_P1;HPM_P2
2023/05/12 00:01:40;;;;;;;78.43;5.82;;;9.70;99.90;;;;;;5084834;28;20024;-73
2023/05/12 00:04:06;;;;;;;16.80;5.30;;;9.80;99.90;;;;;;5086964;28;20632;-71
2023/05/12 00:06:32;;;;;;;13.20;5.80;;;9.90;99.90;;;;;;5090417;28;20028;-71
2023/05/12 00:08:58;;;;;;;12.65;6.07;;;9.90;99.90;;;;;;5089192;28;20162;-71
2023/05/12 00:11:24;;;;;;;10.30;6.28;;;9.90;99.90;;;;;;5087128;28;20027;-71
2023/05/12 00:13:50;;;;;;;12.30;6.88;;;9.90;99.90;;;;;;5093099;28;20081;-72
2023/05/12 00:16:17;;;;;;;14.48;8.27;;;9.90;99.90;;;;;;5079195;28;20054;-72
2023/05/12 00:18:43;;;;;;;12.35;7.10;;;10.00;99.90;;;;;;5092414;28;20032;-72
2023/05/12 00:21:11;;;;;;;15.95;7.28;;;10.00;99.90;;;;;;5087693;28;20044;-72
2023/05/12 00:23:36;;;;;;;16.33;6.88;;;10.00;99.90;;;;;;5088989;28;20040;-71
2023/05/12 00:26:02;;;;;;;30.23;7.50;;;10.00;99.90;;;;;;5091553;28;20036;-70
2023/05/12 00:28:28;;;;;;;15.10;6.88;;;9.90;99.90;;;;;;5088733;28;20028;-71
2023/05/12 00:30:53;;;;;;;11.48;6.50;;;9.90;99.90;;;;;;5091537;28;20036;-72
2023/05/12 00:33:19;;;;;;;52.95;7.65;;;10.00;99.90;;;;;;5087601;28;20048;-72
2023/05/12 00:35:44;;;;;;;894.05;26.50;;;10.00;99.90;;;;;;5072671;28;20050;-71
2023/05/12 00:38:11;;;;;;;1247.38;39.47;;;10.00;99.90;;;;;;5085710;28;20533;-71
2023/05/12 00:40:37;;;;;;;808.15;22.17;;;9.90;99.90;;;;;;5086713;28;20061;-72
2023/05/12 00:43:03;;;;;;;401.85;13.30;;;9.70;99.90;;;;;;5088520;28;20376;-69
2023/05/12 00:45:30;;;;;;;661.72;20.95;;;9.70;99.90;;;;;;5091264;28;20024;-71
2023/05/12 00:47:56;;;;;;;201.80;9.20;;;9.70;99.90;;;;;;5086871;28;20127;-71
2023/05/12 00:50:22;;;;;;;190.02;9.18;;;9.70;99.90;;;;;;5087503;28;20046;-71
2023/05/12 00:52:48;;;;;;;224.40;10.18;;;9.80;99.90;;;;;;5086146;28;20118;-71
2023/05/12 00:55:14;;;;;;;37.90;7.10;;;9.80;99.90;;;;;;5094200;28;20523;-71
2023/05/12 00:57:42;;;;;;;70.78;7.20;;;9.90;99.90;;;;;;5090401;28;20028;-72
2023/05/12 01:00:09;;;;;;;10.88;6.32;;;9.90;99.90;;;;;;5079210;28;20036;-70
2023/05/12 01:02:35;;;;;;;11.70;6.57;;;9.90;99.90;;;;;;5094130;28;20142;-72
2023/05/12 01:05:01;;;;;;;12.15;6.25;;;9.90;99.90;;;;;;5087797;28;20369;-71
2023/05/12 01:07:31;;;;;;;13.13;6.97;;;9.90;99.90;;;;;;5081895;28;20024;-71
2023/05/12 01:09:57;;;;;;;10.95;6.78;;;9.90;99.90;;;;;;5086126;28;20373;-70
2023/05/12 01:12:23;;;;;;;138.02;8.73;;;10.00;99.90;;;;;;5087190;28;20024;-71
2023/05/12 01:14:51;;;;;;;311.15;12.40;;;10.10;99.90;;;;;;5090045;28;20036;-70
2023/05/12 01:17:20;;;;;;;279.35;11.23;;;10.00;99.90;;;;;;5090997;28;20028;-72
2023/05/12 01:19:52;;;;;;;18.40;6.00;;;10.00;99.90;;;;;;5087826;28;20051;-71
2023/05/12 01:22:18;;;;;;;13.38;6.63;;;10.00;99.90;;;;;;5087756;28;20028;-71
2023/05/12 01:24:53;;;;;;;16.30;7.47;;;10.00;99.90;;;;;;5090314;28;20434;-72
2023/05/12 01:27:20;;;;;;;10.88;6.68;;;10.00;99.90;;;;;;5088053;28;20032;-71
2023/05/12 01:29:47;;;;;;;11.57;6.45;;;10.00;99.90;;;;;;5091953;28;20476;-71
2023/05/12 01:32:14;;;;;;;14.88;8.32;;;10.00;99.90;;;;;;5095452;28;20110;-71
2023/05/12 01:34:41;;;;;;;239.35;10.77;;;10.10;99.90;;;;;;5098277;28;20039;-72
2023/05/12 01:37:08;;;;;;;93.47;8.20;;;10.10;99.90;;;;;;5093887;28;20103;-68
2023/05/12 01:39:33;;;;;;;21.52;7.50;;;10.00;99.90;;;;;;5088016;28;20472;-72
2023/05/12 01:41:59;;;;;;;28.90;7.55;;;10.00;99.90;;;;;;5091691;28;20123;-71
2023/05/12 01:44:25;;;;;;;79.30;7.78;;;10.00;99.90;;;;;;5095990;28;20701;-70
2023/05/12 01:46:50;;;;;;;34.20;6.82;;;10.00;99.90;;;;;;5088049;28;20056;-71
2023/05/12 01:49:16;;;;;;;17.05;8.13;;;10.10;99.90;;;;;;5090237;28;20050;-73
2023/05/12 01:51:41;;;;;;;16.05;9.15;;;10.10;99.90;;;;;;5091494;28;20115;-71
2023/05/12 01:54:07;;;;;;;28.30;9.80;;;10.10;99.90;;;;;;5091896;28;20044;-68
2023/05/12 01:56:33;;;;;;;17.85;9.43;;;10.10;99.90;;;;;;5090511;28;20093;-70
2023/05/12 01:58:58;;;;;;;22.10;9.77;;;10.10;99.90;;;;;;5086861;28;20036;-72
2023/05/12 02:01:27;;;;;;;27.13;9.30;;;10.10;99.90;;;;;;5090356;28;20118;-72
2023/05/12 02:03:56;;;;;;;17.15;9.30;;;10.10;99.90;;;;;;5090930;28;20047;-72
2023/05/12 02:06:22;;;;;;;42.10;8.88;;;10.10;99.90;;;;;;5085436;28;20016;-71
2023/05/12 02:08:48;;;;;;;24.17;8.23;;;10.10;99.90;;;;;;5084909;28;20044;-71
2023/05/12 02:11:14;;;;;;;170.23;10.80;;;10.10;99.90;;;;;;5082664;28;20139;-72
2023/05/12 02:13:40;;;;;;;31.83;8.68;;;10.20;99.90;;;;;;5092974;28;20044;-72
2023/05/12 02:16:06;;;;;;;19.60;8.88;;;10.10;99.90;;;;;;5092833;28;20432;-70
2023/05/12 02:18:32;;;;;;;14.40;8.40;;;10.20;99.90;;;;;;5083390;28;20074;-71
2023/05/12 02:20:58;;;;;;;14.68;8.65;;;10.20;99.90;;;;;;5088464;28;20388;-71
2023/05/12 02:23:23;;;;;;;14.77;8.32;;;10.10;99.90;;;;;;5103791;28;20031;-70
2023/05/12 02:25:49;;;;;;;389.30;13.40;;;10.20;99.90;;;;;;5090731;28;20082;-70
2023/05/12 02:28:15;;;;;;;280.00;11.20;;;10.20;99.90;;;;;;5089772;28;20498;-72
2023/05/12 02:30:48;;;;;;;287.48;11.88;;;10.10;99.90;;;;;;5088708;28;20093;-71
2023/05/12 02:33:14;;;;;;;329.73;11.98;;;10.00;99.90;;;;;;5088470;28;20490;-71
2023/05/12 02:35:40;;;;;;;449.17;14.27;;;10.00;99.90;;;;;;5090514;28;20032;-71
2023/05/12 02:38:06;;;;;;;244.50;10.48;;;10.00;99.90;;;;;;5083131;28;20024;-70
2023/05/12 02:40:32;;;;;;;257.90;13.38;;;10.00;99.90;;;;;;5091859;28;20059;-71
2023/05/12 02:42:57;;;;;;;34.95;8.25;;;10.10;99.90;;;;;;5093766;28;20601;-71
2023/05/12 02:45:23;;;;;;;40.45;8.68;;;10.10;99.90;;;;;;5091228;28;20459;-70
2023/05/12 02:47:48;;;;;;;155.05;9.18;;;10.10;99.90;;;;;;5089314;28;20031;-71
2023/05/12 02:50:15;;;;;;;294.27;10.50;;;10.20;99.90;;;;;;5089822;28;20096;-70
2023/05/12 02:52:40;;;;;;;220.07;10.25;;;10.20;99.90;;;;;;5093257;28;20044;-73
2023/05/12 02:55:06;;;;;;;102.38;8.85;;;10.20;99.90;;;;;;5090236;28;20134;-73
2023/05/12 02:57:32;;;;;;;539.97;15.38;;;10.20;99.90;;;;;;5089662;28;20677;-72
2023/05/12 03:00:06;;;;;;;236.82;10.82;;;10.20;99.90;;;;;;5091504;28;20051;-72
2023/05/12 03:02:33;;;;;;;725.95;19.63;;;10.10;99.90;;;;;;5086858;28;20050;-72
2023/05/12 03:04:58;;;;;;;971.58;26.77;;;10.10;99.90;;;;;;5093914;28;20028;-72
2023/05/12 03:07:24;;;;;;;548.67;15.95;;;10.10;99.90;;;;;;5081130;28;20742;-71
2023/05/12 03:09:50;;;;;;;936.58;24.27;;;10.00;99.90;;;;;;5087121;28;20035;-72
2023/05/12 03:12:16;;;;;;;611.28;22.25;;;10.00;99.90;;;;;;5092586;28;20069;-71
2023/05/12 03:14:41;;;;;;;572.22;17.75;;;9.90;99.90;;;;;;5086836;28;20082;-72
2023/05/12 03:17:07;;;;;;;128.82;9.38;;;9.90;99.90;;;;;;5100474;28;20024;-72
2023/05/12 03:19:33;;;;;;;82.35;9.25;;;9.90;99.90;;;;;;5092754;28;20035;-71
2023/05/12 03:22:00;;;;;;;150.00;10.38;;;9.90;99.90;;;;;;5099246;28;20078;-72
2023/05/12 03:24:25;;;;;;;31.23;7.28;;;10.00;99.90;;;;;;5108696;28;20055;-71
2023/05/12 03:26:51;;;;;;;78.30;8.63;;;10.00;99.90;;;;;;5094395;28;20111;-72
2023/05/12 03:29:17;;;;;;;20.17;9.20;;;10.10;99.90;;;;;;5100900;28;20420;-70
2023/05/12 03:31:42;;;;;;;58.47;8.38;;;10.10;99.90;;;;;;5101353;28;20038;-72
2023/05/12 03:34:08;;;;;;;17.73;8.38;;;10.10;99.90;;;;;;5083085;28;20032;-71
2023/05/12 03:36:33;;;;;;;113.10;10.77;;;10.10;99.90;;;;;;5106990;28;20047;-72
2023/05/12 03:38:59;;;;;;;37.50;9.05;;;10.10;99.90;;;;;;5105302;28;20463;-73
2023/05/12 03:41:25;;;;;;;139.95;10.75;;;10.10;99.90;;;;;;5094907;28;20107;-71
2023/05/12 03:43:50;;;;;;;94.38;10.00;;;10.00;99.90;;;;;;5106008;28;20088;-72
2023/05/12 03:46:16;;;;;;;164.70;11.50;;;10.00;99.90;;;;;;5105864;28;20027;-70
2023/05/12 03:48:42;;;;;;;46.03;9.02;;;10.00;99.90;;;;;;5094499;28;20039;-72
2023/05/12 03:51:07;;;;;;;78.75;9.25;;;10.00;99.90;;;;;;5081990;28;20056;-72
2023/05/12 03:53:33;;;;;;;35.72;8.68;;;10.00;99.90;;;;;;5100938;28;20542;-71
2023/05/12 03:56:04;;;;;;;58.08;9.32;;;10.00;99.90;;;;;;5075615;28;20033;-70
2023/05/12 03:58:29;;;;;;;18.23;8.75;;;10.00;99.90;;;;;;5075725;28;20045;-69
2023/05/12 04:01:00;;;;;;;17.08;8.07;;;10.00;99.90;;;;;;5088424;28;20705;-72
2023/05/12 04:03:28;;;;;;;13.93;7.82;;;10.00;99.90;;;;;;5097016;28;20050;-72
2023/05/12 04:05:58;;;;;;;15.65;7.88;;;10.00;99.90;;;;;;5100754;28;20049;-72
2023/05/12 04:08:25;;;;;;;14.48;8.07;;;10.10;99.90;;;;;;5084125;28;20037;-71
2023/05/12 04:10:53;;;;;;;15.02;8.13;;;10.10;99.90;;;;;;5088526;28;20101;-70
2023/05/12 04:13:19;;;;;;;15.10;8.10;;;10.10;99.90;;;;;;5080882;28;20066;-72
2023/05/12 04:15:44;;;;;;;13.23;7.20;;;10.10;99.90;;;;;;5097331;28;20524;-71
2023/05/12 04:18:10;;;;;;;13.57;7.30;;;10.10;99.90;;;;;;5089385;28;20028;-71
2023/05/12 04:20:36;;;;;;;19.50;8.52;;;10.10;99.90;;;;;;5087771;28;20040;-71
2023/05/12 04:23:01;;;;;;;16.08;8.70;;;10.10;99.90;;;;;;5072093;28;20035;-72
2023/05/12 04:25:27;;;;;;;14.65;7.90;;;10.10;99.90;;;;;;5072017;28;20110;-72
2023/05/12 04:27:52;;;;;;;14.73;7.93;;;10.20;99.90;;;;;;5084562;28;20087;-71
2023/05/12 04:30:18;;;;;;;14.45;7.40;;;10.20;99.90;;;;;;5085552;28;20044;-68
2023/05/12 04:32:44;;;;;;;18.48;8.60;;;10.20;99.90;;;;;;5076821;28;20455;-71
2023/05/12 04:35:09;;;;;;;13.63;7.63;;;10.30;99.90;;;;;;5081258;28;20031;-68
2023/05/12 04:37:35;;;;;;;14.88;7.95;;;10.30;99.90;;;;;;5076975;28;20032;-71
2023/05/12 04:40:01;;;;;;;16.33;9.10;;;10.30;99.90;;;;;;5079395;28;20051;-71
2023/05/12 04:42:26;;;;;;;17.23;8.95;;;10.40;99.90;;;;;;5085766;28;20032;-75
2023/05/12 04:44:52;;;;;;;17.85;8.82;;;10.30;99.90;;;;;;5054882;28;20922;-77
2023/05/12 04:47:18;;;;;;;21.65;8.98;;;10.40;99.90;;;;;;5064666;28;20111;-70
2023/05/12 04:49:44;;;;;;;20.05;9.65;;;10.50;99.90;;;;;;5083686;28;20038;-75
2023/05/12 04:52:09;;;;;;;14.23;8.32;;;10.50;99.90;;;;;;5084673;28;20755;-68
2023/05/12 04:54:35;;;;;;;16.92;8.68;;;10.50;99.90;;;;;;5083971;28;20043;-72
2023/05/12 04:57:00;;;;;;;16.65;8.93;;;10.50;99.90;;;;;;5088662;28;20438;-73
2023/05/12 04:59:26;;;;;;;18.98;9.75;;;10.60;99.90;;;;;;5088635;28;20107;-74
2023/05/12 05:01:52;;;;;;;18.13;9.27;;;10.60;99.90;;;;;;5083668;28;20300;-75
2023/05/12 05:04:18;;;;;;;16.88;9.20;;;10.60;99.90;;;;;;5083812;28;20032;-69
2023/05/12 05:06:43;;;;;;;17.98;8.98;;;10.60;99.90;;;;;;5083615;28;20033;-75
2023/05/12 05:09:09;;;;;;;15.35;8.75;;;10.60;99.90;;;;;;5086454;28;20043;-79
2023/05/12 05:11:35;;;;;;;15.85;8.73;;;10.60;99.90;;;;;;5085709;28;20028;-71
2023/05/12 05:14:00;;;;;;;17.92;8.48;;;10.70;99.90;;;;;;5088206;28;20052;-75
2023/05/12 05:16:26;;;;;;;15.75;8.32;;;10.70;99.90;;;;;;5086835;28;20113;-75
2023/05/12 05:18:52;;;;;;;18.83;9.52;;;10.70;99.90;;;;;;5091443;28;20104;-72
2023/05/12 05:21:18;;;;;;;17.83;9.32;;;10.80;99.90;;;;;;5084779;28;20111;-70
2023/05/12 05:23:43;;;;;;;14.40;8.50;;;10.70;99.90;;;;;;5086105;28;20044;-75
2023/05/12 05:26:09;;;;;;;18.33;8.82;;;10.70;99.90;;;;;;5080256;28;20591;-72
2023/05/12 05:28:36;;;;;;;16.67;8.63;;;10.80;99.90;;;;;;5086885;28;20024;-74
2023/05/12 05:31:02;;;;;;;17.52;8.60;;;10.80;99.90;;;;;;5086988;28;20043;-75
2023/05/12 05:33:27;;;;;;;15.52;8.32;;;10.80;99.90;;;;;;5088004;28;20046;-76
2023/05/12 05:35:54;;;;;;;17.25;8.65;;;10.80;99.90;;;;;;5085027;28;20127;-71
2023/05/12 05:38:20;;;;;;;21.85;10.65;;;10.80;99.90;;;;;;5082769;28;20059;-67
2023/05/12 05:40:45;;;;;;;20.50;9.38;;;10.80;99.90;;;;;;5079620;28;20121;-74
2023/05/12 05:43:11;;;;;;;19.13;9.85;;;10.80;99.90;;;;;;5089425;28;20086;-76
2023/05/12 05:45:37;;;;;;;18.13;9.95;;;10.80;99.90;;;;;;5085803;28;20467;-74
2023/05/12 05:48:03;;;;;;;16.48;8.80;;;10.80;99.90;;;;;;5078070;28;20032;-74
2023/05/12 05:50:28;;;;;;;15.18;8.43;;;10.90;99.90;;;;;;5085532;28;20491;-74
2023/05/12 05:52:54;;;;;;;15.00;8.32;;;10.80;99.90;;;;;;5089352;28;20055;-76
2023/05/12 05:55:20;;;;;;;18.35;9.45;;;10.80;99.90;;;;;;5085616;28;20083;-68
2023/05/12 05:57:46;;;;;;;18.55;8.77;;;10.80;99.90;;;;;;5087457;28;20028;-74
2023/05/12 06:00:13;;;;;;;18.67;8.98;;;10.70;99.90;;;;;;5087947;28;20093;-73
2023/05/12 06:02:42;;;;;;;18.95;9.20;;;10.80;99.90;;;;;;5085000;28;20288;-75
2023/05/12 06:05:08;;;;;;;20.15;9.85;;;10.90;99.90;;;;;;5084585;28;20028;-73
2023/05/12 06:07:34;;;;;;;19.95;9.55;;;10.90;99.90;;;;;;5084144;28;20039;-72
2023/05/12 06:09:59;;;;;;;20.80;10.10;;;10.90;99.90;;;;;;5090002;28;20040;-74
2023/05/12 06:12:25;;;;;;;19.92;9.57;;;10.90;99.90;;;;;;5088521;28;20484;-74
2023/05/12 06:14:51;;;;;;;18.15;9.32;;;10.90;99.90;;;;;;5095280;28;20036;-74
2023/05/12 06:17:16;;;;;;;18.25;9.57;;;10.90;99.90;;;;;;5089485;28;20024;-71
2023/05/12 06:19:46;;;;;;;18.42;9.70;;;10.90;99.90;;;;;;5082738;28;20137;-74
2023/05/12 06:22:13;;;;;;;20.67;9.30;;;11.00;99.90;;;;;;5087012;28;20034;-69
2023/05/12 06:24:39;;;;;;;18.90;9.50;;;11.10;99.90;;;;;;5089058;28;20240;-70
2023/05/12 06:27:05;;;;;;;22.13;10.00;;;11.20;99.90;;;;;;5091752;28;20032;-73
2023/05/12 06:29:31;;;;;;;18.65;9.45;;;11.20;99.90;;;;;;5088076;28;20038;-73
2023/05/12 06:31:57;;;;;;;21.83;9.73;;;11.30;99.90;;;;;;5090260;28;20563;-74
2023/05/12 06:34:22;;;;;;;19.50;10.00;;;11.20;99.90;;;;;;5089616;28;20365;-69
2023/05/12 06:36:48;;;;;;;20.75;9.90;;;11.10;99.90;;;;;;5088461;28;20486;-69
2023/05/12 06:39:14;;;;;;;17.70;9.02;;;11.10;99.90;;;;;;5087949;28;20035;-71
2023/05/12 06:41:39;;;;;;;20.80;10.00;;;11.10;99.90;;;;;;5093259;28;20042;-75
2023/05/12 06:44:05;;;;;;;22.05;10.75;;;11.30;99.90;;;;;;5089223;28;20028;-73
2023/05/12 06:46:31;;;;;;;21.50;10.27;;;11.30;99.90;;;;;;5089299;28;20111;-75
2023/05/12 06:48:59;;;;;;;19.30;9.45;;;11.30;99.90;;;;;;5089202;28;20024;-69
2023/05/12 06:51:24;;;;;;;19.60;9.27;;;11.30;99.90;;;;;;5089531;28;20073;-70
2023/05/12 06:53:50;;;;;;;19.75;9.90;;;11.30;99.90;;;;;;5088762;28;20126;-72
2023/05/12 06:56:16;;;;;;;18.65;9.60;;;11.20;99.90;;;;;;5089073;28;20082;-73
2023/05/12 06:58:42;;;;;;;16.38;8.57;;;11.30;99.90;;;;;;5093983;28;20034;-72
2023/05/12 07:01:08;;;;;;;18.10;9.35;;;11.30;99.90;;;;;;5089746;28;20028;-71
2023/05/12 07:03:33;;;;;;;17.77;8.68;;;11.40;99.90;;;;;;5078792;28;20040;-70
2023/05/12 07:05:59;;;;;;;18.15;8.82;;;11.50;99.90;;;;;;5083737;28;20107;-75
2023/05/12 07:08:25;;;;;;;16.88;9.15;;;11.60;99.90;;;;;;5078398;28;20028;-71
2023/05/12 07:10:51;;;;;;;18.05;9.23;;;11.80;99.90;;;;;;5089383;28;20507;-77
2023/05/12 07:13:17;;;;;;;18.88;9.55;;;11.80;99.90;;;;;;5091615;28;20027;-77
2023/05/12 07:15:43;;;;;;;19.13;9.85;;;11.70;99.90;;;;;;5088586;28;20336;-78
2023/05/12 07:18:09;;;;;;;18.30;8.88;;;11.80;99.90;;;;;;5087926;28;20028;-75
2023/05/12 07:20:34;;;;;;;15.23;8.07;;;11.80;99.90;;;;;;5094910;28;20124;-73
2023/05/12 07:23:00;;;;;;;17.25;9.13;;;12.00;99.90;;;;;;5088184;28;20079;-73
2023/05/12 07:25:27;;;;;;;16.77;8.88;;;12.00;99.90;;;;;;5086299;28;20431;-70
2023/05/12 07:27:52;;;;;;;15.32;8.48;;;12.00;99.90;;;;;;5087217;28;20400;-77
2023/05/12 07:30:19;;;;;;;14.65;7.97;;;12.10;99.90;;;;;;5083969;28;20039;-72
2023/05/12 07:32:45;;;;;;;16.00;8.45;;;12.10;99.90;;;;;;5079075;28;20027;-79
2023/05/12 07:35:11;;;;;;;15.30;8.85;;;12.30;99.90;;;;;;5089947;28;20484;-73
2023/05/12 07:37:37;;;;;;;14.90;7.70;;;12.40;99.90;;;;;;5084030;28;20115;-73
2023/05/12 07:40:03;;;;;;;14.75;7.28;;;12.30;99.90;;;;;;5085091;28;20155;-73
2023/05/12 07:42:29;;;;;;;13.23;7.35;;;12.40;99.90;;;;;;5084588;28;20387;-73
2023/05/12 07:44:55;;;;;;;14.32;6.82;;;12.40;99.90;;;;;;5081643;28;20035;-74
2023/05/12 07:47:20;;;;;;;12.45;6.70;;;12.50;99.90;;;;;;5094263;28;20541;-76
2023/05/12 07:49:46;;;;;;;16.98;6.95;;;12.60;99.90;;;;;;5085554;28;20114;-72
2023/05/12 07:52:12;;;;;;;10.10;6.03;;;12.80;99.90;;;;;;5086083;28;20071;-76
2023/05/12 07:54:38;;;;;;;10.27;5.93;;;12.90;99.90;;;;;;5087981;28;20067;-70
2023/05/12 07:57:03;;;;;;;9.55;5.75;;;12.90;99.90;;;;;;5087582;28;20047;-75
2023/05/12 07:59:29;;;;;;;8.20;5.60;;;12.90;99.90;;;;;;5074028;28;20118;-78
2023/05/12 08:01:55;;;;;;;11.85;7.30;;;12.80;99.90;;;;;;5088392;28;20089;-75
2023/05/12 08:04:21;;;;;;;15.57;9.35;;;12.80;99.90;;;;;;5088170;28;20422;-70
2023/05/12 08:06:46;;;;;;;16.08;9.20;;;12.60;99.90;;;;;;5086200;28;20030;-73
2023/05/12 08:09:12;;;;;;;25.60;10.93;;;12.50;99.90;;;;;;5086098;28;20114;-73
2023/05/12 08:11:37;;;;;;;26.23;13.88;;;12.50;99.90;;;;;;5079396;28;20429;-70
2023/05/12 08:14:03;;;;;;;27.05;14.02;;;12.40;99.90;;;;;;5092179;28;20391;-76
2023/05/12 08:16:29;;;;;;;28.52;14.40;;;12.30;99.90;;;;;;5086213;28;20102;-71
2023/05/12 08:18:54;;;;;;;28.27;14.27;;;12.30;99.90;;;;;;5074734;28;20558;-75
2023/05/12 08:21:20;;;;;;;24.95;15.15;;;12.40;99.90;;;;;;5089120;28;20032;-75
2023/05/12 08:23:46;;;;;;;25.02;13.57;;;12.40;99.90;;;;;;5086279;28;20035;-76
2023/05/12 08:26:12;;;;;;;24.83;14.05;;;12.30;99.90;;;;;;5077833;28;20027;-76
2023/05/12 08:28:37;;;;;;;24.10;13.70;;;12.00;99.90;;;;;;5085909;28;20059;-72
2023/05/12 08:31:03;;;;;;;25.15;13.55;;;11.90;99.90;;;;;;5081212;28;20078;-73
2023/05/12 08:33:29;;;;;;;23.15;13.88;;;11.90;99.90;;;;;;5086425;28;20024;-70
2023/05/12 08:35:55;;;;;;;24.20;13.90;;;11.90;99.90;;;;;;5087766;28;20032;-75
2023/05/12 08:38:20;;;;;;;25.63;14.60;;;12.00;99.90;;;;;;5084272;28;20384;-77
2023/05/12 08:41:05;;;;;;;25.58;15.30;;;12.10;99.90;;;;;;5089756;28;20051;-76
2023/05/12 08:43:51;;;;;;;26.05;14.10;;;12.20;99.90;;;;;;5091504;28;20112;-71
2023/05/12 08:46:17;;;;;;;25.52;13.93;;;12.20;99.90;;;;;;5092002;28;20023;-73
2023/05/12 08:48:46;;;;;;;31.48;14.77;;;12.40;99.90;;;;;;5085885;28;20761;-73
2023/05/12 08:51:12;;;;;;;23.77;13.80;;;12.40;99.90;;;;;;5087272;28;20489;-74
2023/05/12 08:53:40;;;;;;;30.95;14.88;;;12.30;99.90;;;;;;5086056;28;20652;-72
2023/05/12 08:56:08;;;;;;;28.88;14.88;;;12.30;99.90;;;;;;5082508;28;20432;-69
2023/05/12 08:58:35;;;;;;;29.02;15.57;;;12.30;99.90;;;;;;5087241;28;20547;-74
2023/05/12 09:01:03;;;;;;;28.75;15.95;;;12.30;99.90;;;;;;5086968;28;20036;-72
2023/05/12 09:03:29;;;;;;;38.38;17.95;;;12.40;99.90;;;;;;5086931;28;20107;-72
2023/05/12 09:05:57;;;;;;;28.17;15.57;;;12.40;99.90;;;;;;5083666;28;20103;-74
2023/05/12 09:08:25;;;;;;;31.05;17.50;;;12.40;99.90;;;;;;5083106;28;20028;-71
2023/05/12 09:10:53;;;;;;;27.40;15.85;;;12.30;99.90;;;;;;5078327;28;20112;-74
2023/05/12 09:13:27;;;;;;;34.33;16.75;;;12.20;99.90;;;;;;5094303;28;20031;-72
2023/05/12 09:15:55;;;;;;;34.50;15.85;;;12.20;99.90;;;;;;5083158;28;20035;-72
2023/05/12 09:18:21;;;;;;;24.45;14.23;;;12.20;99.90;;;;;;5085696;28;20027;-72
2023/05/12 09:20:47;;;;;;;22.90;13.10;;;12.20;99.90;;;;;;5081376;28;20400;-73
2023/05/12 09:23:19;;;;;;;17.13;10.50;;;12.20;99.90;;;;;;5086449;28;20021;-73
2023/05/12 09:25:45;;;;;;;19.45;11.10;;;12.10;99.90;;;;;;5086760;28;20101;-72
2023/05/12 09:28:11;;;;;;;21.90;11.80;;;12.20;99.90;;;;;;5080434;28;20480;-73
2023/05/12 09:30:41;;;;;;;23.25;13.25;;;12.30;99.90;;;;;;5073103;28;20035;-73
2023/05/12 09:33:10;;;;;;;24.75;12.55;;;12.40;99.90;;;;;;5081008;28;20380;-76
2023/05/12 09:35:43;;;;;;;25.25;13.52;;;12.60;99.90;;;;;;5086767;28;20028;-73
2023/05/12 09:38:11;;;;;;;20.23;12.50;;;12.70;99.90;;;;;;5076324;28;20419;-73
2023/05/12 09:40:37;;;;;;;33.47;14.15;;;12.80;99.90;;;;;;5085668;28;20036;-72
2023/05/12 09:43:04;;;;;;;25.88;15.20;;;12.90;99.90;;;;;;5086317;28;20038;-75
2023/05/12 09:45:34;;;;;;;21.80;12.85;;;13.10;99.90;;;;;;5090137;28;20028;-68
2023/05/12 09:48:10;;;;;;;46.50;28.20;;;13.10;99.90;;;;;;5086812;28;20167;-69
2023/05/12 09:50:56;;;;;;;33.40;21.38;;;13.30;99.90;;;;;;5088477;28;20067;-69
2023/05/12 09:53:22;;;;;;;23.98;14.98;;;13.40;99.90;;;;;;5081096;28;20032;-70
2023/05/12 09:55:48;;;;;;;42.97;21.00;;;13.60;99.90;;;;;;5087849;28;20314;-71
2023/05/12 09:58:17;;;;;;;25.38;13.27;;;13.70;99.90;;;;;;5094707;28;20039;-72
2023/05/12 10:00:43;;;;;;;24.55;12.57;;;13.60;99.90;;;;;;5096375;28;20057;-70
2023/05/12 10:03:12;;;;;;;18.52;8.73;;;13.50;99.90;;;;;;5091333;28;20028;-72
2023/05/12 10:06:03;;;;;;;15.60;7.50;;;13.30;99.90;;;;;;5088340;28;20077;-70
2023/05/12 10:08:46;;;;;;;9.95;6.25;;;13.30;99.90;;;;;;5086433;28;20059;-71
2023/05/12 10:11:13;;;;;;;10.40;6.10;;;13.30;99.90;;;;;;5086469;28;20055;-72
2023/05/12 10:13:39;;;;;;;9.38;6.15;;;13.20;99.90;;;;;;5095588;28;20036;-70
2023/05/12 10:16:06;;;;;;;9.93;5.50;;;13.10;99.90;;;;;;5094408;28;20028;-74
2023/05/12 10:18:33;;;;;;;10.93;5.70;;;13.20;99.90;;;;;;5088624;28;20097;-71
2023/05/12 10:21:00;;;;;;;8.75;5.50;;;13.20;99.90;;;;;;5090144;28;20067;-75
2023/05/12 10:23:26;;;;;;;8.52;5.80;;;13.20;99.90;;;;;;5091618;28;20031;-74
2023/05/12 10:25:57;;;;;;;10.63;5.60;;;13.30;99.90;;;;;;5075507;28;20465;-74
2023/05/12 10:28:23;;;;;;;9.02;5.35;;;13.20;99.90;;;;;;5089066;28;20028;-74
2023/05/12 10:30:51;;;;;;;11.70;6.18;;;13.20;99.90;;;;;;5090203;28;20036;-74
2023/05/12 10:33:17;;;;;;;10.98;6.30;;;13.20;99.90;;;;;;5093339;28;20557;-74
2023/05/12 10:35:44;;;;;;;19.85;6.70;;;13.30;99.90;;;;;;5090109;28;20447;-74
2023/05/12 10:38:12;;;;;;;10.70;6.25;;;13.30;99.90;;;;;;5090830;28;20035;-73
2023/05/12 10:40:59;;;;;;;11.05;7.25;;;13.30;99.90;;;;;;5089809;28;20044;-70
2023/05/12 10:43:27;;;;;;;9.82;6.20;;;13.30;99.90;;;;;;5095790;28;20107;-73
2023/05/12 10:46:26;;;;;;;9.63;5.50;;;13.30;99.90;;;;;;5092530;28;20780;-72
2023/05/12 10:48:57;;;;;;;8.55;4.90;;;13.20;99.90;;;;;;5043857;28;20044;-74
2023/05/12 10:51:25;;;;;;;8.85;5.20;;;13.20;99.90;;;;;;5090662;28;20051;-75
2023/05/12 10:54:02;;;;;;;8.48;5.32;;;13.30;99.90;;;;;;5089526;28;20596;-74
2023/05/12 10:56:39;;;;;;;8.45;5.55;;;13.30;99.90;;;;;;5090098;28;20040;-74
2023/05/12 10:59:17;;;;;;;10.90;5.65;;;13.20;99.90;;;;;;5090186;28;20024;-74
2023/05/12 11:01:56;;;;;;;10.75;6.00;;;13.10;99.90;;;;;;5094685;28;20063;-74
2023/05/12 11:04:23;;;;;;;12.98;6.80;;;13.10;99.90;;;;;;5090646;28;20031;-74
2023/05/12 11:06:57;;;;;;;12.00;7.57;;;13.10;99.90;;;;;;5089033;28;20531;-73
2023/05/12 11:09:23;;;;;;;16.58;7.93;;;13.10;99.90;;;;;;5090358;28;20077;-73
2023/05/12 11:11:49;;;;;;;11.48;7.65;;;13.10;99.90;;;;;;5089169;28;20111;-75
2023/05/12 11:14:15;;;;;;;14.35;8.60;;;13.00;99.90;;;;;;5090591;28;20487;-72
2023/05/12 11:16:45;;;;;;;17.77;9.27;;;13.00;99.90;;;;;;5093919;28;20067;-75
2023/05/12 11:19:11;;;;;;;15.93;9.98;;;13.00;99.90;;;;;;5090033;28;20020;-74
2023/05/12 11:21:38;;;;;;;22.02;11.02;;;13.00;99.90;;;;;;5089601;28;20040;-71
2023/05/12 11:24:04;;;;;;;19.80;12.00;;;12.90;99.90;;;;;;5089425;28;20050;-75
2023/05/12 11:26:30;;;;;;;25.85;13.50;;;12.90;99.90;;;;;;5090058;28;20457;-74
2023/05/12 11:28:57;;;;;;;27.75;14.20;;;12.90;99.90;;;;;;5088679;28;20028;-75
2023/05/12 11:31:23;;;;;;;22.27;12.98;;;12.90;99.90;;;;;;5088841;28;20032;-74
2023/05/12 11:33:49;;;;;;;20.88;12.25;;;13.00;99.90;;;;;;5089325;28;20036;-74
2023/05/12 11:36:20;;;;;;;22.13;13.57;;;13.00;99.90;;;;;;5089632;28;20031;-74
2023/05/12 11:38:50;;;;;;;20.55;12.48;;;13.00;99.90;;;;;;5088625;28;20074;-74
2023/05/12 11:41:25;;;;;;;19.63;12.75;;;13.00;99.90;;;;;;5089707;28;20469;-73
2023/05/12 11:43:51;;;;;;;19.52;12.40;;;13.00;99.90;;;;;;5090121;28;20108;-75
2023/05/12 11:47:12;;;;;;;20.88;12.48;;;13.00;99.90;;;;;;5095628;28;20098;-75
2023/05/12 11:49:49;;;;;;;22.95;12.85;;;12.90;99.90;;;;;;5059601;28;20047;-72
2023/05/12 11:52:16;;;;;;;21.25;11.27;;;12.70;99.90;;;;;;5087154;28;20024;-73
2023/05/12 11:54:52;;;;;;;24.25;12.63;;;12.70;99.90;;;;;;5088086;28;20083;-70
2023/05/12 11:57:26;;;;;;;17.88;12.27;;;12.80;99.90;;;;;;5089177;28;20035;-72
2023/05/12 12:00:10;;;;;;;18.23;11.98;;;12.80;99.90;;;;;;5088148;28;20040;-74
2023/05/12 12:02:38;;;;;;;19.77;12.05;;;12.80;99.90;;;;;;5084981;28;20039;-74
2023/05/12 12:05:16;;;;;;;20.80;12.05;;;12.90;99.90;;;;;;5090410;28;20099;-73
2023/05/12 12:07:42;;;;;;;18.58;11.27;;;12.90;99.90;;;;;;5087623;28;20115;-70
2023/05/12 12:10:12;;;;;;;20.58;12.02;;;13.00;99.90;;;;;;5089010;28;20043;-74
2023/05/12 12:12:38;;;;;;;18.63;11.00;;;13.20;99.90;;;;;;5089457;28;20100;-73
2023/05/12 12:15:05;;;;;;;21.77;10.73;;;13.20;99.90;;;;;;5091008;28;20040;-73
2023/05/12 12:17:30;;;;;;;16.10;10.70;;;13.30;99.90;;;;;;5090793;28;20085;-73
2023/05/12 12:19:56;;;;;;;17.92;11.30;;;13.30;99.90;;;;;;5090768;28;20032;-73
2023/05/12 12:22:22;;;;;;;20.73;11.30;;;13.30;99.90;;;;;;5088585;28;20032;-74
2023/05/12 12:24:48;;;;;;;18.40;11.52;;;13.20;99.90;;;;;;5087749;28;20039;-73
2023/05/12 12:27:13;;;;;;;19.23;12.30;;;13.20;99.90;;;;;;5088756;28;20028;-73
2023/05/12 12:29:39;;;;;;;21.77;12.30;;;13.20;99.90;;;;;;5088458;28;20130;-71
2023/05/12 12:32:05;;;;;;;23.80;11.95;;;13.20;99.90;;;;;;5087798;28;20039;-75
2023/05/12 12:34:31;;;;;;;22.60;12.73;;;13.20;99.90;;;;;;5090152;28;20035;-73